createdAt,value
2022-08-10T00:01:41.567Z,18.70
2022-08-10T00:04:09.750Z,18.70
2022-08-10T00:06:49.098Z,18.70
2022-08-10T00:09:17.189Z,18.60
2022-08-10T00:11:45.306Z,18.60
2022-08-10T00:14:13.376Z,18.60
2022-08-10T00:16:42.878Z,18.50
2022-08-10T00:19:10.978Z,18.50
2022-08-10T00:21:39.063Z,18.40
2022-08-10T00:24:07.513Z,18.40
2022-08-10T00:28:00.685Z,18.40
2022-08-10T00:29:23.930Z,18.40
2022-08-10T00:31:58.342Z,18.40
2022-08-10T00:34:27.845Z,18.30
2022-08-10T00:36:56.214Z,18.30
2022-08-10T00:39:24.589Z,18.30
2022-08-10T00:42:01.764Z,18.20
2022-08-10T00:44:36.021Z,18.20
2022-08-10T00:47:06.457Z,18.10
2022-08-10T00:49:34.832Z,18.10
2022-08-10T00:52:04.900Z,18.00
2022-08-10T00:54:33.016Z,18.10
2022-08-10T00:57:15.805Z,18.10
2022-08-10T00:59:59.075Z,18.10
2022-08-10T01:02:32.107Z,18.00
2022-08-10T01:05:03.361Z,18.10
2022-08-10T01:07:50.862Z,18.00
2022-08-10T01:10:31.074Z,18.00
2022-08-10T01:13:07.761Z,17.90
2022-08-10T01:15:43.593Z,17.90
2022-08-10T01:18:19.755Z,17.90
2022-08-10T01:21:01.034Z,17.90
2022-08-10T01:24:01.620Z,17.80
2022-08-10T01:26:40.991Z,17.80
2022-08-10T01:29:40.166Z,17.80
2022-08-10T01:32:10.383Z,17.70
2022-08-10T01:34:45.489Z,17.70
2022-08-10T01:37:17.725Z,17.60
2022-08-10T01:39:49.578Z,17.60
2022-08-10T01:42:20.909Z,17.60
2022-08-10T01:44:54.482Z,17.60
2022-08-10T01:47:56.287Z,17.50
2022-08-10T01:50:32.185Z,17.50
2022-08-10T01:53:05.954Z,17.50
2022-08-10T01:55:36.112Z,17.40
2022-08-10T01:58:07.486Z,17.30
2022-08-10T02:00:40.786Z,17.40
2022-08-10T02:03:11.770Z,17.30
2022-08-10T02:05:44.369Z,17.40
2022-08-10T02:08:16.231Z,17.40
2022-08-10T02:10:46.364Z,17.30
2022-08-10T02:13:18.979Z,17.30
2022-08-10T02:16:02.290Z,17.30
2022-08-10T02:18:32.104Z,17.20
2022-08-10T02:21:03.290Z,17.20
2022-08-10T02:23:33.383Z,17.20
2022-08-10T02:26:03.515Z,17.10
2022-08-10T02:28:38.221Z,17.10
2022-08-10T02:31:11.619Z,17.10
2022-08-10T02:33:56.515Z,17.10
2022-08-10T02:36:28.939Z,17.10
2022-08-10T02:39:01.384Z,17.00
2022-08-10T02:45:16.072Z,17.00
2022-08-10T02:45:27.118Z,17.00
2022-08-10T02:47:27.474Z,16.90
2022-08-10T02:50:04.085Z,17.00
2022-08-10T02:52:39.339Z,16.80
2022-08-10T02:55:18.235Z,16.80
2022-08-10T02:58:16.786Z,16.80
2022-08-10T03:00:45.580Z,16.90
2022-08-10T03:03:20.967Z,16.90
2022-08-10T03:05:51.548Z,16.80
2022-08-10T03:08:22.825Z,16.90
2022-08-10T03:10:51.721Z,16.80
2022-08-10T03:13:21.615Z,16.80
2022-08-10T03:15:51.438Z,16.80
2022-08-10T03:18:22.791Z,16.80
2022-08-10T03:20:52.365Z,16.70
2022-08-10T03:23:22.808Z,16.70
2022-08-10T03:25:55.173Z,16.60
2022-08-10T03:28:24.628Z,16.60
2022-08-10T03:30:53.592Z,16.60
2022-08-10T03:33:25.335Z,16.60
2022-08-10T03:36:43.774Z,16.60
2022-08-10T03:38:44.464Z,16.60
2022-08-10T03:41:16.295Z,16.60
2022-08-10T03:43:47.883Z,16.60
2022-08-10T03:46:19.410Z,16.60
2022-08-10T03:48:53.370Z,16.50
2022-08-10T03:51:23.762Z,16.50
2022-08-10T03:54:05.523Z,16.50
2022-08-10T03:56:37.699Z,16.50
2022-08-10T03:59:07.388Z,16.50
2022-08-10T04:02:46.490Z,16.50
2022-08-10T04:04:26.022Z,16.50
2022-08-10T04:06:56.038Z,16.40
2022-08-10T04:09:43.267Z,16.50
2022-08-10T04:12:14.887Z,16.40
2022-08-10T04:14:50.393Z,16.40
2022-08-10T04:18:02.940Z,16.40
2022-08-10T04:20:19.244Z,16.40
2022-08-10T04:22:50.969Z,16.40
2022-08-10T04:25:20.749Z,16.40
2022-08-10T04:27:49.420Z,16.30
2022-08-10T04:30:17.651Z,16.30
2022-08-10T04:32:48.443Z,16.30
2022-08-10T04:35:21.330Z,16.40
2022-08-10T04:37:50.598Z,16.30
2022-08-10T04:40:25.448Z,16.40
2022-08-10T04:43:05.816Z,16.40
2022-08-10T04:45:49.927Z,16.30
2022-08-10T04:48:40.159Z,16.30
2022-08-10T04:51:17.061Z,16.30
2022-08-10T04:54:04.944Z,16.40
2022-08-10T04:56:39.554Z,16.40
2022-08-10T04:59:09.676Z,16.60
2022-08-10T05:02:28.270Z,16.50
2022-08-10T05:04:38.497Z,16.50
2022-08-10T05:07:16.345Z,16.90
2022-08-10T05:10:01.154Z,17.70
2022-08-10T05:12:35.856Z,18.50
2022-08-10T05:15:06.495Z,18.50
2022-08-10T05:17:35.288Z,18.70
2022-08-10T05:20:06.863Z,19.30
2022-08-10T05:22:41.611Z,18.70
2022-08-10T05:25:11.661Z,18.50
2022-08-10T05:27:40.694Z,18.80
2022-08-10T05:30:10.846Z,18.90
2022-08-10T05:32:56.814Z,19.60
2022-08-10T05:35:27.688Z,20.00
2022-08-10T05:38:09.275Z,19.50
2022-08-10T05:40:49.628Z,19.20
2022-08-10T05:43:20.552Z,20.40
2022-08-10T05:46:18.842Z,20.50
2022-08-10T05:48:58.223Z,19.90
2022-08-10T05:51:27.517Z,19.90
2022-08-10T05:54:02.576Z,19.50
2022-08-10T05:56:55.441Z,20.60
2022-08-10T06:00:30.814Z,20.50
2022-08-10T06:02:41.036Z,20.30
2022-08-10T06:05:10.456Z,19.70
2022-08-10T06:07:45.698Z,20.20
2022-08-10T06:10:31.618Z,20.80
2022-08-10T06:13:30.736Z,21.10
2022-08-10T06:16:06.575Z,20.90
2022-08-10T06:18:35.090Z,20.50
2022-08-10T06:21:03.520Z,20.60
2022-08-10T06:23:33.509Z,20.30
2022-08-10T06:26:10.367Z,20.50
2022-08-10T06:29:02.347Z,21.80
2022-08-10T06:31:47.587Z,22.10
2022-08-10T06:34:24.868Z,21.50
2022-08-10T06:36:55.656Z,21.00
2022-08-10T06:39:37.027Z,21.70
2022-08-10T06:42:18.330Z,21.80
2022-08-10T06:44:58.094Z,21.10
2022-08-10T06:47:32.116Z,21.40
2022-08-10T06:50:08.619Z,22.40
2022-08-10T06:52:38.564Z,22.70
2022-08-10T06:55:12.188Z,23.00
2022-08-10T06:57:59.754Z,23.70
2022-08-10T07:00:33.832Z,23.60
2022-08-10T07:03:15.414Z,23.00
2022-08-10T07:05:51.205Z,22.20
2022-08-10T07:08:21.682Z,23.20
2022-08-10T07:10:51.163Z,23.00
2022-08-10T07:14:17.272Z,23.30
2022-08-10T07:16:16.209Z,23.40
2022-08-10T07:18:49.262Z,24.30
2022-08-10T07:21:19.833Z,24.30
2022-08-10T07:23:57.856Z,24.30
2022-08-10T07:26:29.831Z,26.20
2022-08-10T07:29:00.440Z,26.70
2022-08-10T07:31:55.041Z,24.50
2022-08-10T07:34:28.682Z,24.20
2022-08-10T07:37:01.611Z,24.40
2022-08-10T07:40:03.754Z,25.20
2022-08-10T07:42:24.449Z,25.80
2022-08-10T07:44:54.488Z,24.70
2022-08-10T07:47:46.219Z,24.00
2022-08-10T07:50:22.967Z,24.80
2022-08-10T07:52:54.615Z,24.70
2022-08-10T07:56:03.964Z,24.40
2022-08-10T07:58:12.519Z,24.20
2022-08-10T08:00:43.254Z,24.10
2022-08-10T08:03:15.169Z,25.50
2022-08-10T08:05:58.266Z,24.70
2022-08-10T08:08:33.556Z,24.20
2022-08-10T08:11:02.559Z,25.50
2022-08-10T08:13:31.531Z,25.40
2022-08-10T08:16:19.789Z,26.00
2022-08-10T08:19:16.402Z,27.30
2022-08-10T08:24:09.791Z,26.00
2022-08-10T08:24:33.665Z,26.20
2022-08-10T08:27:06.100Z,26.80
2022-08-10T08:29:37.278Z,26.30
2022-08-10T08:32:08.472Z,27.20
2022-08-10T08:34:39.767Z,26.60
2022-08-10T08:37:10.851Z,27.70
2022-08-10T08:39:41.160Z,26.30
2022-08-10T08:42:36.659Z,27.00
2022-08-10T08:45:15.354Z,26.40
2022-08-10T08:48:15.221Z,25.90
2022-08-10T08:50:59.564Z,27.20
2022-08-10T08:54:03.160Z,27.50
2022-08-10T08:56:40.490Z,27.80
2022-08-10T08:59:26.416Z,29.10
2022-08-10T09:02:10.825Z,27.80
2022-08-10T09:05:01.508Z,28.20
2022-08-10T09:08:02.115Z,28.30
2022-08-10T09:10:43.707Z,29.50
2022-08-10T09:13:21.042Z,29.70
2022-08-10T09:16:06.687Z,28.20
2022-08-10T09:18:43.330Z,28.10
2022-08-10T09:21:20.777Z,27.50
2022-08-10T09:24:05.971Z,27.60
2022-08-10T09:26:48.065Z,29.00
2022-08-10T09:29:20.696Z,30.80
2022-08-10T09:31:55.495Z,29.60
2022-08-10T09:36:26.379Z,29.20
2022-08-10T09:38:02.259Z,29.20
2022-08-10T09:41:01.302Z,30.60
2022-08-10T09:43:37.791Z,30.40
2022-08-10T09:46:15.384Z,30.80
2022-08-10T09:48:51.344Z,29.00
2022-08-10T09:51:46.643Z,28.00
2022-08-10T09:54:29.754Z,30.60
2022-08-10T09:57:43.261Z,30.10
2022-08-10T10:00:09.292Z,29.30
2022-08-10T10:02:47.191Z,30.60
2022-08-10T10:05:28.456Z,30.10
2022-08-10T10:08:06.378Z,29.40
2022-08-10T10:10:47.431Z,29.80
2022-08-10T10:13:50.047Z,29.10
2022-08-10T10:16:39.038Z,28.60
2022-08-10T10:19:21.349Z,29.30
2022-08-10T10:21:57.877Z,29.50
2022-08-10T10:24:36.616Z,29.40
2022-08-10T10:27:18.576Z,30.80
2022-08-10T10:29:56.199Z,29.10
2022-08-10T10:32:34.777Z,29.00
2022-08-10T10:35:13.421Z,29.80
2022-08-10T10:38:03.036Z,30.10
2022-08-10T10:40:36.375Z,30.70
2022-08-10T10:43:12.748Z,29.60
2022-08-10T10:45:55.298Z,30.40
2022-08-10T10:48:34.078Z,30.70
2022-08-10T10:51:11.117Z,30.60
2022-08-10T10:53:48.642Z,30.70
2022-08-10T10:56:24.526Z,31.30
2022-08-10T10:59:16.136Z,31.30
2022-08-10T11:02:02.079Z,30.30
2022-08-10T11:04:37.963Z,30.50
2022-08-10T11:07:15.859Z,30.10
2022-08-10T11:10:03.547Z,30.20
2022-08-10T11:12:45.799Z,30.60
2022-08-10T11:15:27.976Z,31.70
2022-08-10T11:18:02.455Z,33.30
2022-08-10T11:20:41.198Z,32.30
2022-08-10T11:23:20.217Z,30.30
2022-08-10T11:25:59.600Z,30.70
2022-08-10T11:28:37.326Z,31.70
2022-08-10T11:31:14.032Z,30.90
2022-08-10T11:34:48.170Z,30.40
2022-08-10T11:36:53.945Z,30.20
2022-08-10T11:39:32.495Z,30.80
2022-08-10T11:42:19.150Z,31.20
2022-08-10T11:45:01.590Z,31.70
2022-08-10T11:47:38.971Z,32.10
2022-08-10T11:50:15.069Z,31.70
2022-08-10T11:52:52.761Z,31.20
2022-08-10T11:55:23.345Z,31.10
2022-08-10T11:57:56.257Z,31.60
2022-08-10T12:00:30.329Z,32.20
2022-08-10T12:03:06.960Z,31.30
2022-08-10T12:05:51.720Z,32.10
2022-08-10T12:10:03.806Z,32.10
2022-08-10T12:11:24.286Z,32.60
2022-08-10T12:14:21.003Z,32.60
2022-08-10T12:16:53.574Z,31.70
2022-08-10T12:19:29.267Z,33.70
2022-08-10T12:22:21.843Z,33.10
2022-08-10T12:24:56.548Z,33.50
2022-08-10T12:27:32.387Z,33.00
2022-08-10T12:30:05.287Z,32.60
2022-08-10T12:32:42.810Z,34.20
2022-08-10T12:35:26.002Z,36.30
2022-08-10T12:38:07.015Z,33.40
2022-08-10T12:40:43.238Z,32.60
2022-08-10T12:44:05.458Z,31.80
2022-08-10T12:46:10.814Z,33.60
2022-08-10T12:48:49.549Z,32.90
2022-08-10T12:51:23.370Z,33.50
2022-08-10T12:53:58.240Z,33.00
2022-08-10T12:56:30.195Z,32.10
2022-08-10T12:59:01.626Z,32.30
2022-08-10T13:02:10.172Z,32.20
2022-08-10T13:04:29.870Z,33.10
2022-08-10T13:07:01.940Z,33.20
2022-08-10T13:09:30.847Z,33.40
2022-08-10T13:12:35.847Z,34.00
2022-08-10T13:14:55.027Z,32.70
2022-08-10T13:17:39.721Z,33.00
2022-08-10T13:20:19.360Z,32.10
2022-08-10T13:22:50.717Z,32.10
2022-08-10T13:25:25.247Z,32.60
2022-08-10T13:28:00.948Z,32.50
2022-08-10T13:30:50.564Z,33.00
2022-08-10T13:34:40.000Z,32.80
2022-08-10T13:36:10.234Z,32.00
2022-08-10T13:38:43.774Z,31.80
2022-08-10T13:41:12.812Z,32.20
2022-08-10T13:43:53.879Z,32.10
2022-08-10T13:46:23.494Z,32.40
2022-08-10T13:48:53.413Z,32.90
2022-08-10T13:51:56.660Z,32.90
2022-08-10T13:54:15.804Z,32.00
2022-08-10T13:56:46.316Z,32.20
2022-08-10T13:59:16.219Z,31.90
2022-08-10T14:01:50.680Z,32.90
2022-08-10T14:04:19.948Z,33.60
2022-08-10T14:06:53.783Z,34.10
2022-08-10T14:09:31.167Z,33.70
2022-08-10T14:12:00.625Z,32.80
2022-08-10T14:14:30.485Z,32.10
2022-08-10T14:16:59.638Z,33.00
2022-08-10T14:19:30.702Z,33.50
2022-08-10T14:21:59.315Z,32.60
2022-08-10T14:24:30.433Z,31.90
2022-08-10T14:27:02.919Z,32.20
2022-08-10T14:29:32.477Z,32.10
2022-08-10T14:32:05.307Z,32.60
2022-08-10T14:36:16.111Z,33.20
2022-08-10T14:37:33.204Z,32.30
2022-08-10T14:40:12.672Z,31.30
2022-08-10T14:42:46.747Z,31.10
2022-08-10T14:45:21.772Z,31.60
2022-08-10T14:47:59.418Z,32.00
2022-08-10T14:50:33.475Z,32.10
2022-08-10T14:53:09.514Z,31.90
2022-08-10T14:55:58.940Z,32.70
2022-08-10T14:58:34.223Z,32.80
2022-08-10T15:01:03.763Z,32.50
2022-08-10T15:03:58.507Z,33.40
2022-08-10T15:06:31.414Z,33.90
2022-08-10T15:09:12.275Z,32.70
2022-08-10T15:12:14.171Z,32.20
2022-08-10T15:14:43.410Z,32.10
2022-08-10T15:17:14.862Z,33.00
2022-08-10T15:20:02.936Z,32.00
2022-08-10T15:22:38.601Z,31.30
2022-08-10T15:25:18.901Z,32.20
2022-08-10T15:27:57.899Z,32.00
2022-08-10T15:30:40.452Z,31.80
2022-08-10T15:34:03.864Z,32.30
2022-08-10T15:36:37.990Z,31.90
2022-08-10T15:39:50.755Z,31.70
2022-08-10T15:42:00.697Z,31.80
2022-08-10T15:44:43.623Z,31.90
2022-08-10T15:47:15.469Z,31.50
2022-08-10T15:49:52.627Z,31.10
2022-08-10T15:53:00.024Z,30.90
2022-08-10T15:55:43.288Z,31.10
2022-08-10T15:58:10.019Z,31.20
2022-08-10T16:00:47.313Z,31.00
2022-08-10T16:03:33.605Z,31.00
2022-08-10T16:06:06.247Z,31.20
2022-08-10T16:08:56.058Z,30.80
2022-08-10T16:11:38.253Z,30.90
2022-08-10T16:14:19.475Z,30.80
2022-08-10T16:16:55.138Z,30.80
2022-08-10T16:19:26.133Z,30.60
2022-08-10T16:22:02.435Z,30.60
2022-08-10T16:24:51.602Z,30.50
2022-08-10T16:27:23.704Z,30.70
2022-08-10T16:29:58.955Z,30.70
2022-08-10T16:32:31.558Z,30.70
2022-08-10T16:35:01.763Z,30.70
2022-08-10T16:37:58.409Z,30.60
2022-08-10T16:40:30.097Z,30.50
2022-08-10T16:43:00.881Z,30.60
2022-08-10T16:45:35.630Z,30.40
2022-08-10T16:48:07.195Z,30.30
2022-08-10T16:50:39.309Z,30.50
2022-08-10T16:53:13.336Z,30.70
2022-08-10T16:55:50.523Z,30.50
2022-08-10T16:58:21.906Z,30.50
2022-08-10T17:00:51.388Z,30.30
2022-08-10T17:04:07.787Z,30.30
2022-08-10T17:06:22.578Z,30.00
2022-08-10T17:08:54.110Z,30.10
2022-08-10T17:11:28.355Z,30.00
2022-08-10T17:13:58.167Z,29.90
2022-08-10T17:16:28.506Z,29.80
2022-08-10T17:18:59.379Z,29.70
2022-08-10T17:21:32.207Z,29.80
2022-08-10T17:24:04.167Z,29.80
2022-08-10T17:26:37.439Z,29.60
2022-08-10T17:29:50.569Z,29.60
2022-08-10T17:32:07.799Z,29.50
2022-08-10T17:34:41.028Z,29.50
2022-08-10T17:37:16.573Z,29.50
2022-08-10T17:39:49.788Z,29.60
2022-08-10T17:42:22.230Z,29.40
2022-08-10T17:44:52.452Z,29.30
2022-08-10T17:47:21.950Z,29.30
2022-08-10T17:49:56.407Z,29.20
2022-08-10T17:52:29.018Z,29.10
2022-08-10T17:55:01.169Z,29.10
2022-08-10T17:57:36.259Z,28.90
2022-08-10T18:00:08.552Z,28.90
2022-08-10T18:02:40.133Z,28.80
2022-08-10T18:05:11.557Z,28.80
2022-08-10T18:07:45.334Z,28.70
2022-08-10T18:10:17.374Z,28.60
2022-08-10T18:12:48.437Z,28.50
2022-08-10T18:15:21.218Z,28.40
2022-08-10T18:17:55.503Z,28.40
2022-08-10T18:20:38.597Z,28.30
2022-08-10T18:23:08.537Z,28.20
2022-08-10T18:25:43.155Z,28.00
2022-08-10T18:28:15.941Z,28.00
2022-08-10T18:30:48.228Z,27.90
2022-08-10T18:33:18.698Z,27.70
2022-08-10T18:35:53.729Z,27.60
2022-08-10T18:38:25.854Z,27.70
2022-08-10T18:40:58.899Z,27.30
2022-08-10T18:44:06.754Z,27.10
2022-08-10T18:46:24.506Z,27.00
2022-08-10T18:48:56.941Z,26.60
2022-08-10T18:51:35.743Z,26.40
2022-08-10T18:54:31.414Z,26.20
2022-08-10T18:57:17.049Z,25.90
2022-08-10T19:00:09.167Z,25.80
2022-08-10T19:03:07.685Z,25.60
2022-08-10T19:05:55.981Z,25.30
2022-08-10T19:08:49.003Z,25.20
2022-08-10T19:11:29.973Z,25.10
2022-08-10T19:14:07.562Z,24.90
2022-08-10T19:19:54.907Z,24.70
2022-08-10T19:22:31.528Z,24.60
2022-08-10T19:25:08.082Z,24.30
2022-08-10T19:27:48.457Z,24.10
2022-08-10T19:30:19.326Z,24.10
2022-08-10T19:33:13.325Z,23.90
2022-08-10T19:36:03.616Z,23.80
2022-08-10T19:38:43.917Z,23.60
2022-08-10T19:41:32.189Z,23.60
2022-08-10T19:44:10.134Z,23.50
2022-08-10T19:46:45.644Z,23.40
2022-08-10T19:49:23.828Z,23.40
2022-08-10T19:52:10.118Z,23.30
2022-08-10T19:54:51.914Z,23.20
2022-08-10T19:57:32.310Z,23.00
2022-08-10T20:00:18.649Z,22.90
2022-08-10T20:03:07.515Z,22.50
2022-08-10T20:06:18.665Z,22.30
2022-08-10T20:08:43.740Z,22.30
2022-08-10T20:11:44.631Z,22.30
2022-08-10T20:14:21.893Z,22.30
2022-08-10T20:16:56.096Z,22.40
2022-08-10T20:19:52.858Z,22.40
2022-08-10T20:22:29.442Z,22.30
2022-08-10T20:25:06.951Z,22.20
2022-08-10T20:27:58.889Z,22.30
2022-08-10T20:30:35.774Z,22.50
2022-08-10T20:33:09.512Z,22.80
2022-08-10T20:35:51.674Z,22.50
2022-08-10T20:38:29.406Z,22.70
2022-08-10T20:41:09.649Z,22.70
2022-08-10T20:43:48.861Z,22.50
2022-08-10T20:46:49.520Z,22.60
2022-08-10T20:49:25.393Z,22.80
2022-08-10T20:51:59.175Z,23.00
2022-08-10T20:54:33.429Z,23.10
2022-08-10T20:57:55.609Z,23.00
2022-08-10T21:00:27.261Z,23.00
2022-08-10T21:03:22.063Z,23.10
2022-08-10T21:06:08.628Z,23.00
2022-08-10T21:08:48.037Z,22.80
2022-08-10T21:11:26.597Z,22.90
2022-08-10T21:14:26.859Z,22.90
2022-08-10T21:17:06.447Z,23.00
2022-08-10T21:19:55.557Z,22.80
2022-08-10T21:22:31.561Z,22.60
2022-08-10T21:25:03.839Z,22.60
2022-08-10T21:28:03.945Z,22.40
2022-08-10T21:30:47.018Z,21.90
2022-08-10T21:33:27.069Z,22.10
2022-08-10T21:36:05.841Z,22.30
2022-08-10T21:38:46.848Z,22.30
2022-08-10T21:41:58.011Z,22.30
2022-08-10T21:45:04.136Z,22.30
2022-08-10T21:48:17.665Z,22.60
2022-08-10T21:51:10.294Z,22.50
2022-08-10T21:54:11.322Z,22.50
2022-08-10T21:57:03.084Z,22.70
2022-08-10T21:59:56.612Z,22.60
2022-08-10T22:02:49.920Z,22.50
2022-08-10T22:05:42.243Z,22.60
2022-08-10T22:08:33.987Z,22.50
2022-08-10T22:11:24.526Z,22.60
2022-08-10T22:14:10.775Z,22.30
2022-08-10T22:17:05.284Z,22.10
2022-08-10T22:19:55.320Z,22.00
2022-08-10T22:22:56.504Z,22.20
2022-08-10T22:25:55.418Z,21.90
2022-08-10T22:28:42.501Z,21.90
2022-08-10T22:31:48.540Z,21.80
2022-08-10T22:34:53.169Z,21.80
2022-08-10T22:37:53.862Z,22.20
2022-08-10T22:40:42.401Z,22.10
2022-08-10T22:43:37.780Z,21.80
2022-08-10T22:46:33.909Z,21.80
2022-08-10T22:49:01.517Z,21.70
2022-08-10T22:51:44.037Z,21.90
2022-08-10T22:54:34.136Z,21.90
2022-08-10T22:57:21.787Z,21.70
2022-08-10T22:59:51.501Z,21.50
2022-08-10T23:02:30.758Z,21.60
2022-08-10T23:05:06.933Z,21.70
2022-08-10T23:07:43.579Z,21.70
2022-08-10T23:10:15.493Z,21.70
2022-08-10T23:12:52.119Z,21.70
2022-08-10T23:15:44.360Z,21.70
2022-08-10T23:18:37.179Z,21.50
2022-08-10T23:21:08.576Z,21.50
2022-08-10T23:23:40.531Z,21.50
2022-08-10T23:26:12.851Z,21.40
2022-08-10T23:28:59.959Z,21.40
2022-08-10T23:31:59.045Z,21.30
2022-08-10T23:34:28.521Z,21.10
2022-08-10T23:37:00.021Z,21.00
2022-08-10T23:39:36.066Z,20.90
2022-08-10T23:42:09.444Z,20.80
2022-08-10T23:44:42.625Z,20.70
2022-08-10T23:47:12.938Z,20.40
2022-08-10T23:49:43.513Z,20.30
2022-08-10T23:52:15.179Z,20.10
2022-08-10T23:54:47.245Z,20.00
2022-08-10T23:57:21.315Z,19.90
2022-08-10T23:59:56.168Z,19.80
